Time;durP1;ratioP1;P1;durP2;ratioP2;P2;SDS_P1;SDS_P2;PMS_P1;PMS_P2;Temp;Humidity;BMP_temperature;BMP_pressure;BME280_temperature;BME280_humidity;BME280_pressure;Samples;Min_cycle;Max_cycle;Signal;HPM_P1;HPM_P2
2023/08/19 00:01:31;;;;;;;5.93;3.07;;;25.30;65.00;;;;;;5036552;28;20292;-75
2023/08/19 00:03:57;;;;;;;6.57;4.13;;;25.50;64.20;;;;;;5042690;28;20444;-76
2023/08/19 00:06:40;;;;;;;7.30;2.97;;;25.40;65.40;;;;;;5058140;28;20485;-73
2023/08/19 00:09:08;;;;;;;6.22;3.20;;;25.30;64.90;;;;;;5055932;28;20271;-72
2023/08/19 00:11:38;;;;;;;6.32;3.38;;;25.20;65.60;;;;;;5041962;28;20036;-74
2023/08/19 00:14:06;;;;;;;8.73;3.03;;;25.40;64.40;;;;;;5041892;28;20017;-73
2023/08/19 00:16:35;;;;;;;10.27;2.92;;;25.60;63.50;;;;;;5047460;28;20050;-72
2023/08/19 00:19:01;;;;;;;10.38;3.60;;;25.60;63.70;;;;;;5047930;28;20040;-76
2023/08/19 00:21:26;;;;;;;4.00;3.35;;;25.40;64.40;;;;;;5040754;28;20029;-72
2023/08/19 00:23:52;;;;;;;10.40;3.67;;;25.30;66.00;;;;;;5039284;28;20033;-73
2023/08/19 00:26:18;;;;;;;11.37;3.73;;;25.20;66.70;;;;;;5035418;28;20887;-74
2023/08/19 00:28:43;;;;;;;3.77;2.73;;;25.20;68.20;;;;;;5041661;28;20391;-74
2023/08/19 00:31:09;;;;;;;8.30;2.90;;;25.20;64.20;;;;;;5042947;28;20417;-74
2023/08/19 00:33:35;;;;;;;4.75;3.25;;;25.30;64.80;;;;;;5038360;28;20021;-75
2023/08/19 00:36:03;;;;;;;11.45;3.15;;;25.20;65.50;;;;;;5044024;28;20041;-73
2023/08/19 00:38:29;;;;;;;8.45;3.63;;;25.20;65.50;;;;;;5041475;28;20029;-74
2023/08/19 00:40:55;;;;;;;13.45;3.40;;;25.20;65.20;;;;;;5039518;28;20507;-72
2023/08/19 00:43:20;;;;;;;4.10;2.85;;;25.20;66.00;;;;;;5042351;28;20063;-75
2023/08/19 00:45:48;;;;;;;7.23;2.97;;;25.20;66.30;;;;;;5044750;28;20403;-73
2023/08/19 00:48:15;;;;;;;8.43;3.08;;;25.10;66.00;;;;;;5040827;28;20306;-77
2023/08/19 00:50:41;;;;;;;8.07;3.03;;;25.10;66.70;;;;;;5038774;28;20031;-74
2023/08/19 00:53:08;;;;;;;5.85;2.50;;;24.90;66.80;;;;;;5042173;28;20032;-74
2023/08/19 00:55:35;;;;;;;6.03;3.28;;;24.90;68.10;;;;;;5043406;28;20091;-73
2023/08/19 00:58:03;;;;;;;5.95;3.05;;;24.90;67.30;;;;;;5041094;28;20554;-75
2023/08/19 01:00:32;;;;;;;5.53;2.53;;;24.90;68.00;;;;;;5039227;28;20427;-73
2023/08/19 01:03:04;;;;;;;4.88;2.85;;;24.70;70.20;;;;;;5040998;28;20021;-78
2023/08/19 01:06:09;;;;;;;4.65;2.92;;;24.70;67.60;;;;;;5040649;28;20552;-74
2023/08/19 01:08:43;;;;;;;6.70;2.65;;;24.50;71.30;;;;;;5038400;28;20026;-75
2023/08/19 01:11:21;;;;;;;7.45;3.22;;;24.40;69.30;;;;;;5038672;28;20053;-72
2023/08/19 01:13:58;;;;;;;7.07;2.83;;;24.30;69.60;;;;;;5039879;28;20059;-72
2023/08/19 01:16:26;;;;;;;6.60;2.80;;;24.20;72.20;;;;;;5040726;28;20055;-72
2023/08/19 01:18:54;;;;;;;4.53;2.83;;;24.10;71.80;;;;;;5039888;28;20030;-72
2023/08/19 01:21:21;;;;;;;6.18;2.90;;;24.50;68.20;;;;;;5040959;28;20556;-72
2023/08/19 01:23:48;;;;;;;7.85;3.05;;;24.50;69.50;;;;;;5045105;28;20036;-72
2023/08/19 01:26:16;;;;;;;5.00;2.75;;;24.40;68.50;;;;;;5033885;28;20037;-73
2023/08/19 01:28:42;;;;;;;5.03;3.00;;;24.20;70.90;;;;;;5037429;28;20057;-73
2023/08/19 01:31:07;;;;;;;4.03;2.80;;;24.20;71.60;;;;;;5044159;28;20052;-72
2023/08/19 01:33:33;;;;;;;3.05;2.70;;;24.20;69.70;;;;;;5035799;28;20151;-72
2023/08/19 01:36:11;;;;;;;3.33;2.70;;;24.10;72.50;;;;;;5046658;28;20064;-73
2023/08/19 01:38:44;;;;;;;7.45;2.92;;;24.10;72.50;;;;;;5039238;28;20033;-74
2023/08/19 01:41:13;;;;;;;6.55;3.22;;;24.00;70.30;;;;;;5038388;28;20825;-74
2023/08/19 01:43:40;;;;;;;7.57;3.03;;;23.90;69.40;;;;;;5043569;28;20471;-72
2023/08/19 01:46:06;;;;;;;5.15;2.65;;;23.80;73.20;;;;;;5041977;28;20072;-72
2023/08/19 01:48:31;;;;;;;6.80;2.72;;;23.70;70.60;;;;;;5036702;28;20032;-72
2023/08/19 01:50:57;;;;;;;7.87;3.40;;;23.80;73.40;;;;;;5041998;28;20032;-72
2023/08/19 01:53:23;;;;;;;3.80;2.80;;;23.80;69.00;;;;;;5055901;28;20026;-72
2023/08/19 01:55:48;;;;;;;5.07;2.83;;;23.90;73.60;;;;;;5037966;28;20037;-73
2023/08/19 01:58:14;;;;;;;6.70;2.87;;;23.80;69.20;;;;;;5038675;28;21058;-72
2023/08/19 02:00:39;;;;;;;5.27;2.57;;;23.80;71.00;;;;;;5039800;28;20132;-72
2023/08/19 02:03:07;;;;;;;3.90;2.70;;;23.60;72.90;;;;;;5036555;28;20029;-71
2023/08/19 02:05:32;;;;;;;7.72;3.17;;;23.60;72.00;;;;;;5033441;28;20021;-72
2023/08/19 02:07:58;;;;;;;5.37;2.70;;;23.60;70.30;;;;;;5037621;28;20416;-72
2023/08/19 02:10:23;;;;;;;5.73;2.83;;;23.50;75.30;;;;;;5044451;28;20485;-73
2023/08/19 02:12:49;;;;;;;4.80;2.90;;;23.40;73.70;;;;;;5038734;28;20029;-73
2023/08/19 02:15:15;;;;;;;4.87;2.97;;;23.50;72.80;;;;;;5037293;28;20557;-73
2023/08/19 02:17:40;;;;;;;6.17;3.07;;;23.60;70.70;;;;;;5044893;28;20083;-73
2023/08/19 02:20:06;;;;;;;5.63;2.50;;;23.50;71.10;;;;;;5033177;28;20034;-74
2023/08/19 02:22:32;;;;;;;4.03;2.50;;;23.50;71.30;;;;;;5038344;28;20017;-73
2023/08/19 02:24:57;;;;;;;5.03;2.80;;;23.50;72.10;;;;;;5044941;28;20484;-73
2023/08/19 02:27:24;;;;;;;6.20;2.70;;;23.40;73.30;;;;;;5040201;28;20049;-75
2023/08/19 02:29:50;;;;;;;7.60;2.92;;;23.40;68.30;;;;;;5037435;28;20058;-74
2023/08/19 02:32:15;;;;;;;2.73;2.40;;;23.70;67.10;;;;;;5040107;28;20017;-73
2023/08/19 02:34:41;;;;;;;4.80;2.67;;;23.70;67.10;;;;;;5041641;28;20025;-74
2023/08/19 02:37:09;;;;;;;3.77;2.57;;;23.70;66.60;;;;;;5037115;28;20044;-73
2023/08/19 02:39:34;;;;;;;8.45;3.33;;;24.00;66.50;;;;;;5040957;28;20159;-75
2023/08/19 02:42:00;;;;;;;4.82;2.35;;;23.80;65.90;;;;;;5037484;28;20043;-72
2023/08/19 02:44:25;;;;;;;6.43;2.70;;;23.70;69.30;;;;;;5039604;28;20033;-71
2023/08/19 02:46:51;;;;;;;8.70;3.03;;;23.70;67.60;;;;;;5041418;28;20017;-72
2023/08/19 02:49:17;;;;;;;4.13;2.77;;;23.70;68.70;;;;;;5038116;28;20513;-73
2023/08/19 02:51:42;;;;;;;4.70;2.40;;;23.80;67.00;;;;;;5042246;28;20052;-72
2023/08/19 02:54:08;;;;;;;8.10;2.97;;;23.60;70.30;;;;;;5035284;28;20047;-72
2023/08/19 02:56:33;;;;;;;6.07;2.73;;;23.60;71.30;;;;;;5040440;28;20021;-72
2023/08/19 02:58:59;;;;;;;4.03;2.77;;;23.50;70.30;;;;;;5055094;28;20667;-72
2023/08/19 03:01:24;;;;;;;5.23;2.73;;;23.60;67.40;;;;;;5038570;28;20890;-73
2023/08/19 03:03:50;;;;;;;5.23;2.70;;;23.60;68.70;;;;;;5037775;28;20025;-72
2023/08/19 03:06:16;;;;;;;4.40;2.70;;;23.50;70.10;;;;;;5029732;28;20029;-71
2023/08/19 03:08:41;;;;;;;4.73;2.80;;;23.70;67.90;;;;;;5053290;28;20079;-72
2023/08/19 03:11:07;;;;;;;3.57;2.67;;;23.80;68.20;;;;;;5037628;28;20515;-73
2023/08/19 03:13:33;;;;;;;3.67;2.37;;;23.80;66.40;;;;;;5040688;28;20055;-72
2023/08/19 03:16:00;;;;;;;4.20;2.40;;;23.80;69.30;;;;;;5035821;28;20037;-72
2023/08/19 03:18:26;;;;;;;5.53;3.00;;;23.60;66.70;;;;;;5034201;28;20041;-73
2023/08/19 03:20:56;;;;;;;4.13;2.50;;;23.60;66.50;;;;;;5033653;28;20021;-73
2023/08/19 03:23:22;;;;;;;7.88;3.38;;;23.60;69.50;;;;;;5037595;28;20109;-73
2023/08/19 03:25:51;;;;;;;7.97;2.78;;;23.40;70.70;;;;;;5037742;28;20025;-73
2023/08/19 03:28:16;;;;;;;7.03;3.33;;;23.40;70.40;;;;;;5035503;28;20035;-73
2023/08/19 03:30:42;;;;;;;4.53;2.40;;;23.30;68.40;;;;;;5039853;28;20100;-73
2023/08/19 03:33:07;;;;;;;5.93;3.03;;;23.10;71.90;;;;;;5036223;28;20051;-73
2023/08/19 03:35:36;;;;;;;8.03;3.60;;;23.30;67.60;;;;;;5038735;28;20547;-73
2023/08/19 03:38:04;;;;;;;5.07;3.10;;;23.30;67.60;;;;;;5038159;28;20040;-73
2023/08/19 03:40:30;;;;;;;3.65;2.80;;;23.10;67.70;;;;;;5032886;28;20569;-73
2023/08/19 03:42:56;;;;;;;4.22;2.70;;;23.10;67.70;;;;;;5043066;28;20021;-73
2023/08/19 03:45:21;;;;;;;11.60;2.73;;;23.10;68.00;;;;;;5036645;28;20086;-72
2023/08/19 03:47:47;;;;;;;6.93;2.80;;;23.00;67.80;;;;;;5035984;28;20279;-74
2023/08/19 03:50:13;;;;;;;12.97;3.83;;;23.00;68.10;;;;;;5035043;28;20511;-75
2023/08/19 03:52:38;;;;;;;7.67;2.80;;;23.00;67.90;;;;;;5012573;28;20500;-73
2023/08/19 03:55:05;;;;;;;3.55;2.67;;;23.00;68.20;;;;;;5036006;28;20404;-72
2023/08/19 03:57:30;;;;;;;7.88;3.28;;;23.00;68.00;;;;;;5037862;28;20023;-72
2023/08/19 03:59:56;;;;;;;7.47;2.88;;;23.00;70.00;;;;;;5043468;28;20408;-72
2023/08/19 04:02:22;;;;;;;4.83;2.43;;;23.10;68.30;;;;;;5035412;28;20406;-72
2023/08/19 04:05:04;;;;;;;4.93;2.67;;;23.00;68.50;;;;;;5040031;28;20083;-70
2023/08/19 04:07:30;;;;;;;10.23;3.00;;;23.10;67.90;;;;;;5034948;28;20059;-72
2023/08/19 04:09:56;;;;;;;11.07;3.00;;;23.10;67.60;;;;;;5033617;28;20454;-72
2023/08/19 04:12:22;;;;;;;;;;;23.10;67.60;;;;;;5038515;28;20047;-72
2023/08/19 04:14:48;;;;;;;7.10;2.83;;;23.00;68.00;;;;;;5037566;28;19908;-72
2023/08/19 04:17:14;;;;;;;10.60;2.90;;;23.00;69.10;;;;;;5034952;28;20028;-73
2023/08/19 04:19:40;;;;;;;5.78;2.70;;;23.20;68.10;;;;;;5037855;28;20053;-72
2023/08/19 04:22:05;;;;;;;4.33;2.60;;;23.10;67.90;;;;;;5036526;28;20535;-72
2023/08/19 04:24:32;;;;;;;6.90;2.33;;;23.20;65.20;;;;;;5034349;28;20025;-72
2023/08/19 04:26:59;;;;;;;4.43;2.55;;;23.20;66.40;;;;;;5032146;28;20021;-73
2023/08/19 04:29:26;;;;;;;6.45;2.63;;;23.40;66.00;;;;;;5031930;28;20040;-71
2023/08/19 04:31:51;;;;;;;5.50;2.65;;;23.40;65.50;;;;;;5037009;28;20703;-73
2023/08/19 04:34:17;;;;;;;5.87;2.90;;;23.40;65.60;;;;;;5034713;28;20072;-71
2023/08/19 04:36:42;;;;;;;9.27;2.30;;;23.40;65.80;;;;;;5051883;28;20184;-72
2023/08/19 04:39:08;;;;;;;3.47;2.23;;;23.40;65.60;;;;;;5035283;28;20029;-72
2023/08/19 04:41:34;;;;;;;4.00;2.47;;;23.40;65.80;;;;;;5034595;28;20026;-71
2023/08/19 04:43:59;;;;;;;6.07;2.53;;;23.40;65.70;;;;;;5038391;28;20283;-73
2023/08/19 04:46:25;;;;;;;3.30;2.63;;;23.20;66.50;;;;;;5037399;28;20644;-72
2023/08/19 04:48:51;;;;;;;5.22;2.70;;;23.20;65.80;;;;;;5036267;28;20029;-72
2023/08/19 04:51:17;;;;;;;6.73;2.60;;;23.20;66.60;;;;;;5042665;28;20144;-75
2023/08/19 04:53:42;;;;;;;7.13;3.47;;;23.20;67.00;;;;;;5042077;28;20057;-72
2023/08/19 04:56:08;;;;;;;4.43;2.27;;;23.20;66.40;;;;;;5037907;28;20017;-72
2023/08/19 04:58:34;;;;;;;9.40;2.65;;;23.30;66.10;;;;;;5043780;28;20025;-72
2023/08/19 05:01:00;;;;;;;;;;;23.40;65.10;;;;;;5039417;28;20069;-72
2023/08/19 05:03:25;;;;;;;4.35;2.35;;;23.40;65.00;;;;;;5038631;28;19952;-78
2023/08/19 05:05:51;;;;;;;7.87;2.87;;;23.40;65.50;;;;;;5039168;28;20437;-72
2023/08/19 05:08:17;;;;;;;6.40;3.10;;;;;;;;;;5041273;28;20021;-74
2023/08/19 05:10:43;;;;;;;5.68;2.95;;;23.50;64.60;;;;;;5040360;28;20090;-72
2023/08/19 05:13:09;;;;;;;3.97;2.20;;;23.30;66.90;;;;;;5042863;28;20069;-73
2023/08/19 05:15:35;;;;;;;6.97;2.78;;;23.30;66.10;;;;;;5041429;28;20032;-73
2023/08/19 05:18:01;;;;;;;;;;;23.40;65.40;;;;;;5036409;28;20026;-72
2023/08/19 05:20:27;;;;;;;6.63;2.33;;;23.50;66.20;;;;;;5044734;28;19940;-73
2023/08/19 05:22:52;;;;;;;3.78;2.42;;;23.40;66.10;;;;;;5041441;28;20025;-72
2023/08/19 05:25:18;;;;;;;8.47;2.30;;;23.40;65.20;;;;;;5039182;28;20033;-71
2023/08/19 05:27:43;;;;;;;2.93;2.20;;;23.40;70.40;;;;;;5036903;28;20032;-73
2023/08/19 05:30:10;;;;;;;7.80;2.73;;;23.60;65.00;;;;;;5039408;28;20427;-72
2023/08/19 05:32:35;;;;;;;8.27;3.03;;;23.60;65.50;;;;;;5036699;28;20029;-73
2023/08/19 05:35:01;;;;;;;6.63;2.77;;;23.60;65.30;;;;;;5039900;28;20062;-73
2023/08/19 05:37:26;;;;;;;9.27;2.90;;;23.60;64.50;;;;;;5042116;28;20488;-73
2023/08/19 05:39:52;;;;;;;5.50;2.70;;;23.60;65.10;;;;;;5038832;28;20037;-72
2023/08/19 05:42:18;;;;;;;6.33;2.23;;;23.60;64.90;;;;;;5039180;28;20835;-73
2023/08/19 05:44:43;;;;;;;6.72;2.83;;;23.60;69.50;;;;;;5044035;28;20106;-75
2023/08/19 05:47:09;;;;;;;4.70;2.33;;;23.60;65.70;;;;;;5039589;28;20029;-73
2023/08/19 05:49:35;;;;;;;5.10;2.72;;;23.60;65.70;;;;;;5032431;28;20025;-73
2023/08/19 05:52:01;;;;;;;5.22;2.78;;;23.70;65.50;;;;;;5039597;28;20117;-70
2023/08/19 05:54:27;;;;;;;7.80;3.60;;;23.70;66.20;;;;;;5037332;28;20112;-73
2023/08/19 05:56:53;;;;;;;;;;;23.70;66.90;;;;;;5034320;28;20032;-75
2023/08/19 05:59:18;;;;;;;4.68;3.75;;;23.80;68.50;;;;;;5042331;28;19912;-73
2023/08/19 06:01:44;;;;;;;4.13;2.73;;;23.70;71.90;;;;;;5037974;28;20079;-74
2023/08/19 06:04:09;;;;;;;9.40;2.70;;;23.60;66.70;;;;;;5038448;28;20124;-74
2023/08/19 06:06:36;;;;;;;6.97;2.50;;;23.60;66.40;;;;;;5034757;28;20033;-74
2023/08/19 06:09:01;;;;;;;;;;;23.60;67.10;;;;;;5034241;28;20439;-74
2023/08/19 06:11:28;;;;;;;4.43;2.78;;;23.70;66.40;;;;;;5043189;28;20415;-75
2023/08/19 06:13:53;;;;;;;4.85;2.78;;;23.90;65.70;;;;;;5035017;28;20871;-73
2023/08/19 06:16:19;;;;;;;19.80;3.23;;;23.90;65.10;;;;;;5036382;28;20508;-76
2023/08/19 06:18:45;;;;;;;9.03;3.30;;;24.00;65.60;;;;;;5036718;28;20021;-74
2023/08/19 06:21:12;;;;;;;4.78;3.25;;;24.10;65.40;;;;;;5031187;28;20354;-75
2023/08/19 06:23:37;;;;;;;7.95;2.65;;;24.20;68.40;;;;;;5033309;28;20064;-75
2023/08/19 06:26:03;;;;;;;4.38;2.60;;;24.20;66.80;;;;;;5037037;28;20037;-74
2023/08/19 06:28:29;;;;;;;13.27;4.28;;;24.40;65.70;;;;;;5035394;28;20416;-75
2023/08/19 06:30:56;;;;;;;3.40;2.55;;;24.50;66.50;;;;;;5034318;28;20037;-76
2023/08/19 06:33:22;;;;;;;4.63;2.75;;;24.50;67.30;;;;;;5036395;28;20112;-76
2023/08/19 06:35:49;;;;;;;3.38;2.78;;;24.50;66.10;;;;;;5036989;28;20120;-73
2023/08/19 06:38:23;;;;;;;5.95;3.58;;;24.70;66.80;;;;;;5038824;28;20132;-73
2023/08/19 06:41:05;;;;;;;3.58;2.45;;;24.80;65.50;;;;;;5035822;28;20045;-74
2023/08/19 06:43:31;;;;;;;7.53;2.75;;;24.90;65.80;;;;;;5036879;28;20025;-71
2023/08/19 06:45:58;;;;;;;4.90;2.53;;;24.90;64.90;;;;;;5034551;28;20029;-73
2023/08/19 06:48:24;;;;;;;6.55;2.47;;;24.90;67.90;;;;;;5053840;28;20033;-73
2023/08/19 06:50:51;;;;;;;9.63;3.00;;;24.90;68.80;;;;;;5035024;28;20037;-73
2023/08/19 06:53:17;;;;;;;5.70;2.70;;;25.00;68.50;;;;;;5033562;28;20040;-71
2023/08/19 06:55:48;;;;;;;;;;;25.20;65.60;;;;;;5035913;28;20036;-75
2023/08/19 06:58:21;;;;;;;6.28;3.88;;;25.20;67.10;;;;;;5036130;28;19917;-71
2023/08/19 07:00:49;;;;;;;5.90;2.88;;;25.20;66.30;;;;;;5033625;28;20067;-72
2023/08/19 07:03:18;;;;;;;10.80;3.10;;;25.20;69.50;;;;;;5034298;28;20025;-72
2023/08/19 07:05:45;;;;;;;6.28;3.10;;;25.40;66.00;;;;;;5032641;28;20153;-73
2023/08/19 07:08:13;;;;;;;5.82;3.45;;;25.50;65.90;;;;;;5031080;28;20501;-73
2023/08/19 07:10:38;;;;;;;5.85;2.78;;;25.60;67.10;;;;;;5039043;28;20025;-71
2023/08/19 07:13:04;;;;;;;4.90;3.17;;;25.70;66.00;;;;;;5032349;28;20037;-71
2023/08/19 07:15:30;;;;;;;10.35;3.25;;;26.00;66.50;;;;;;5035291;28;20028;-71
2023/08/19 07:17:59;;;;;;;5.20;2.58;;;26.50;63.50;;;;;;5033871;28;20029;-69
2023/08/19 07:20:25;;;;;;;7.22;2.42;;;26.90;62.10;;;;;;5035247;28;20032;-70
2023/08/19 07:22:52;;;;;;;3.83;2.90;;;26.60;62.30;;;;;;5040013;28;20428;-69
2023/08/19 07:25:19;;;;;;;9.18;2.60;;;26.60;62.80;;;;;;5033116;28;20041;-70
2023/08/19 07:27:45;;;;;;;7.55;3.58;;;26.80;60.60;;;;;;5032591;28;20024;-71
2023/08/19 07:30:12;;;;;;;;;;;26.70;61.80;;;;;;5034268;28;20033;-69
2023/08/19 07:32:38;;;;;;;9.77;3.38;;;26.70;63.30;;;;;;5031734;28;19909;-70
2023/08/19 07:35:04;;;;;;;;;;;28.20;59.80;;;;;;5031345;28;20369;-69
2023/08/19 07:37:30;;;;;;;5.13;2.80;;;28.00;59.60;;;;;;5032859;28;19909;-72
2023/08/19 07:39:56;;;;;;;5.80;2.97;;;27.50;59.70;;;;;;5031001;28;20146;-73
2023/08/19 07:42:22;;;;;;;8.43;2.70;;;27.30;60.10;;;;;;5035420;28;20033;-72
2023/08/19 07:44:48;;;;;;;10.82;2.58;;;27.10;61.60;;;;;;5035938;28;20036;-70
2023/08/19 07:47:13;;;;;;;4.63;3.45;;;27.10;59.50;;;;;;5038056;28;20108;-70
2023/08/19 07:49:39;;;;;;;9.15;3.00;;;27.20;61.20;;;;;;5035828;28;20230;-69
2023/08/19 07:52:05;;;;;;;7.82;2.70;;;27.20;58.00;;;;;;5032721;28;20041;-69
2023/08/19 07:54:31;;;;;;;3.47;2.15;;;27.40;59.00;;;;;;5032070;28;20407;-71
2023/08/19 07:56:57;;;;;;;;;;;27.60;59.00;;;;;;5030599;28;20052;-71
2023/08/19 07:59:23;;;;;;;4.82;2.78;;;27.60;57.90;;;;;;5033196;28;19947;-70
2023/08/19 08:01:49;;;;;;;6.68;2.85;;;27.70;58.60;;;;;;5037929;28;20048;-70
2023/08/19 08:04:15;;;;;;;7.70;2.63;;;27.70;61.60;;;;;;5033211;28;20034;-73
2023/08/19 08:06:41;;;;;;;4.00;2.85;;;28.20;57.30;;;;;;5033700;28;20029;-71
2023/08/19 08:09:06;;;;;;;3.88;2.95;;;28.30;60.10;;;;;;5033456;28;20025;-71
2023/08/19 08:11:32;;;;;;;4.83;2.43;;;28.10;61.40;;;;;;5034671;28;20172;-71
2023/08/19 08:13:58;;;;;;;4.47;2.65;;;28.20;60.00;;;;;;5031554;28;20291;-73
2023/08/19 08:16:23;;;;;;;6.63;3.20;;;29.30;61.30;;;;;;5031875;28;20040;-72
2023/08/19 08:18:49;;;;;;;4.97;2.45;;;32.50;52.40;;;;;;5030241;28;20113;-73
2023/08/19 08:21:14;;;;;;;3.47;2.33;;;34.10;50.50;;;;;;5047551;28;20557;-72
2023/08/19 08:23:41;;;;;;;5.78;2.20;;;35.20;47.80;;;;;;5039393;28;20034;-73
2023/08/19 08:26:06;;;;;;;5.60;2.30;;;35.30;49.20;;;;;;5039249;28;20112;-73
2023/08/19 08:28:32;;;;;;;;;;;33.30;52.30;;;;;;5055577;28;20120;-72
2023/08/19 08:30:58;;;;;;;3.00;2.03;;;32.80;51.40;;;;;;5042290;28;19920;-73
2023/08/19 08:33:25;;;;;;;;;;;31.90;52.50;;;;;;5041564;28;20063;-75
2023/08/19 08:35:51;;;;;;;7.72;1.98;;;31.00;58.70;;;;;;5053613;28;19944;-73
2023/08/19 08:38:16;;;;;;;;;;;31.30;51.30;;;;;;5042470;28;20037;-72
2023/08/19 08:40:42;;;;;;;5.28;1.80;;;30.30;54.30;;;;;;5044532;28;20380;-72
2023/08/19 08:43:07;;;;;;;;;;;29.80;54.30;;;;;;5042410;28;20032;-74
2023/08/19 08:45:34;;;;;;;6.05;2.60;;;29.60;54.70;;;;;;5045827;28;20375;-73
2023/08/19 08:48:02;;;;;;;6.63;2.85;;;29.40;53.40;;;;;;5044765;28;20032;-72
2023/08/19 08:50:29;;;;;;;3.67;2.47;;;29.60;53.90;;;;;;5044772;28;20092;-74
2023/08/19 08:52:57;;;;;;;3.75;2.10;;;29.60;57.50;;;;;;5039460;28;20826;-73
2023/08/19 08:55:23;;;;;;;6.30;2.53;;;30.50;57.60;;;;;;5036419;28;20645;-73
2023/08/19 08:57:49;;;;;;;2.95;2.35;;;30.80;54.70;;;;;;5040761;28;20144;-73
2023/08/19 09:00:16;;;;;;;4.53;2.22;;;31.40;55.90;;;;;;5034858;28;20044;-73
2023/08/19 09:02:44;;;;;;;6.50;2.83;;;31.70;58.30;;;;;;5037313;28;20021;-72
2023/08/19 09:05:11;;;;;;;10.05;2.80;;;32.30;52.70;;;;;;5036803;28;20187;-74
2023/08/19 09:07:42;;;;;;;4.13;2.65;;;31.70;53.20;;;;;;5041308;28;20486;-73
2023/08/19 09:10:13;;;;;;;3.55;2.55;;;32.30;55.60;;;;;;5038272;28;20709;-73
2023/08/19 09:12:42;;;;;;;9.25;3.13;;;32.30;52.10;;;;;;5043462;28;20032;-73
2023/08/19 09:15:09;;;;;;;5.47;3.53;;;33.40;52.30;;;;;;5040250;28;20025;-75
2023/08/19 09:17:36;;;;;;;4.65;2.80;;;35.30;52.20;;;;;;5041114;28;20028;-77
2023/08/19 09:20:06;;;;;;;6.13;2.67;;;35.50;48.30;;;;;;5045638;28;20029;-76
2023/08/19 09:22:31;;;;;;;5.18;2.42;;;34.30;49.00;;;;;;5044980;28;20029;-75
2023/08/19 09:24:57;;;;;;;;;;;33.30;55.40;;;;;;5043283;28;20024;-74
2023/08/19 09:27:26;;;;;;;8.27;2.53;;;32.90;56.20;;;;;;5042092;28;19916;-74
2023/08/19 09:29:53;;;;;;;9.35;2.65;;;33.50;51.60;;;;;;5056360;28;20040;-73
2023/08/19 09:32:31;;;;;;;3.95;2.30;;;33.60;54.70;;;;;;5040983;28;20071;-73
2023/08/19 09:35:08;;;;;;;8.27;2.80;;;34.80;49.40;;;;;;5039588;28;20033;-73
2023/08/19 09:37:36;;;;;;;9.60;2.70;;;35.30;49.60;;;;;;5042874;28;20033;-75
2023/08/19 09:40:11;;;;;;;5.57;2.78;;;36.00;49.20;;;;;;5042086;28;20064;-73
2023/08/19 09:42:39;;;;;;;4.78;2.80;;;38.20;48.40;;;;;;5043430;28;20033;-73
2023/08/19 09:45:05;;;;;;;8.73;3.15;;;38.90;47.00;;;;;;5040367;28;20441;-74
2023/08/19 09:47:44;;;;;;;3.97;2.90;;;39.50;44.70;;;;;;5044091;28;20488;-76
2023/08/19 09:50:09;;;;;;;3.92;2.65;;;40.40;47.00;;;;;;5041522;28;20042;-75
2023/08/19 09:52:35;;;;;;;5.70;2.92;;;40.70;47.60;;;;;;5036799;28;20668;-74
2023/08/19 09:55:01;;;;;;;5.75;3.10;;;40.70;45.70;;;;;;5038672;28;20029;-76
2023/08/19 09:57:34;;;;;;;9.50;3.08;;;40.30;44.90;;;;;;5043776;28;20037;-73
2023/08/19 10:00:01;;;;;;;8.95;3.17;;;40.40;48.20;;;;;;5039058;28;20088;-73
2023/08/19 10:02:28;;;;;;;4.35;2.80;;;39.90;46.70;;;;;;5041369;28;20140;-74
2023/08/19 10:04:56;;;;;;;8.15;2.35;;;40.80;46.10;;;;;;5041370;28;20503;-73
2023/08/19 10:07:29;;;;;;;4.68;2.83;;;41.00;44.90;;;;;;5038919;28;20017;-75
2023/08/19 10:09:55;;;;;;;7.57;2.75;;;41.40;43.80;;;;;;5054397;28;20029;-75
2023/08/19 10:12:22;;;;;;;5.05;2.75;;;41.00;43.10;;;;;;5039014;28;20590;-77
2023/08/19 10:14:52;;;;;;;6.68;2.80;;;41.20;43.90;;;;;;5044979;28;20039;-77
2023/08/19 10:17:20;;;;;;;4.60;2.47;;;41.60;45.20;;;;;;5037442;28;20025;-75
2023/08/19 10:19:54;;;;;;;5.57;2.65;;;41.60;43.60;;;;;;5041609;28;20421;-74
2023/08/19 10:22:20;;;;;;;4.38;2.25;;;40.80;44.30;;;;;;5039601;28;20516;-78
2023/08/19 10:24:47;;;;;;;5.45;2.63;;;41.40;44.00;;;;;;5035299;28;20078;-75
2023/08/19 10:27:17;;;;;;;2.78;2.45;;;41.10;45.50;;;;;;5041683;28;20124;-74
2023/08/19 10:29:48;;;;;;;5.93;2.50;;;40.70;43.70;;;;;;5040874;28;20029;-76
2023/08/19 10:32:31;;;;;;;7.22;2.90;;;40.60;44.50;;;;;;5033132;28;20034;-79
2023/08/19 10:35:09;;;;;;;3.78;2.45;;;40.60;44.60;;;;;;5052318;28;20029;-75
2023/08/19 10:37:39;;;;;;;3.60;2.50;;;40.10;43.50;;;;;;5033863;28;20074;-77
2023/08/19 10:40:13;;;;;;;2.90;2.40;;;40.40;46.00;;;;;;5037264;28;20166;-73
2023/08/19 10:42:38;;;;;;;6.57;2.35;;;39.20;43.20;;;;;;5036368;28;20538;-75
2023/08/19 10:45:21;;;;;;;5.55;2.50;;;37.70;44.10;;;;;;5037599;28;20063;-73
2023/08/19 10:47:51;;;;;;;4.63;2.10;;;36.90;46.00;;;;;;5037767;28;20504;-74
2023/08/19 10:50:18;;;;;;;3.80;2.25;;;36.20;45.00;;;;;;5036840;28;20024;-78
2023/08/19 10:53:19;;;;;;;4.45;2.00;;;36.00;46.20;;;;;;5043223;28;20029;-72
2023/08/19 10:55:54;;;;;;;10.18;2.28;;;35.80;45.80;;;;;;5031677;28;20048;-74
2023/08/19 10:58:22;;;;;;;3.80;2.35;;;35.70;45.70;;;;;;5036078;28;20441;-78
2023/08/19 11:00:48;;;;;;;5.50;2.60;;;35.60;46.70;;;;;;5039347;28;20072;-75
2023/08/19 11:03:15;;;;;;;5.28;2.53;;;35.30;47.20;;;;;;5041465;28;20032;-76
2023/08/19 11:05:48;;;;;;;10.70;2.42;;;35.50;48.40;;;;;;5037467;28;20033;-72
2023/08/19 11:08:14;;;;;;;4.90;2.33;;;35.20;47.50;;;;;;5037519;28;20045;-74
2023/08/19 11:10:40;;;;;;;6.00;2.53;;;35.30;47.80;;;;;;5039001;28;20067;-77
2023/08/19 11:13:05;;;;;;;7.07;2.63;;;35.30;47.50;;;;;;5040410;28;20017;-71
2023/08/19 11:15:31;;;;;;;6.65;2.35;;;35.30;50.00;;;;;;5035227;28;20040;-74
2023/08/19 11:17:58;;;;;;;6.13;3.30;;;35.00;47.50;;;;;;5034391;28;20100;-76
2023/08/19 11:20:28;;;;;;;4.15;2.55;;;34.90;47.30;;;;;;5038176;28;20148;-75
2023/08/19 11:22:55;;;;;;;8.60;2.70;;;34.80;48.70;;;;;;5041212;28;20031;-75
2023/08/19 11:25:20;;;;;;;6.97;2.50;;;35.00;48.50;;;;;;5055064;28;20029;-77
2023/08/19 11:27:46;;;;;;;10.48;2.40;;;35.10;48.30;;;;;;5038249;28;20029;-73
2023/08/19 11:30:16;;;;;;;11.05;2.80;;;35.20;47.80;;;;;;5035773;28;20563;-74
2023/08/19 11:32:48;;;;;;;11.30;2.85;;;35.20;47.10;;;;;;5035164;28;20119;-74
2023/08/19 11:35:14;;;;;;;10.45;3.50;;;35.10;46.40;;;;;;5037594;28;20500;-72
2023/08/19 11:37:41;;;;;;;7.25;2.53;;;35.30;45.90;;;;;;5034824;28;20029;-73
2023/08/19 11:40:08;;;;;;;3.92;2.50;;;35.40;45.40;;;;;;5035575;28;20044;-77
2023/08/19 11:42:33;;;;;;;7.30;3.20;;;35.30;45.50;;;;;;5038216;28;20117;-74
2023/08/19 11:44:59;;;;;;;5.70;3.03;;;35.20;47.50;;;;;;5040098;28;20028;-77
2023/08/19 11:47:25;;;;;;;4.68;2.60;;;35.20;47.10;;;;;;5038175;28;20031;-74
2023/08/19 11:49:51;;;;;;;8.40;2.90;;;35.40;46.10;;;;;;5037527;28;20380;-73
2023/08/19 11:52:20;;;;;;;5.68;2.60;;;35.50;46.10;;;;;;5042519;28;20024;-75
2023/08/19 11:54:59;;;;;;;4.97;2.17;;;35.50;45.80;;;;;;5041675;28;20029;-72
2023/08/19 11:57:24;;;;;;;11.43;2.42;;;35.50;45.00;;;;;;5044450;28;20162;-76
2023/08/19 11:59:56;;;;;;;7.43;2.70;;;35.30;45.40;;;;;;5046032;28;20120;-72
2023/08/19 12:02:22;;;;;;;12.93;2.60;;;35.10;47.60;;;;;;5046266;28;20162;-77
2023/08/19 12:04:53;;;;;;;7.07;2.55;;;34.90;46.70;;;;;;5045775;28;20500;-73
2023/08/19 12:07:28;;;;;;;8.75;4.25;;;34.90;49.30;;;;;;5043450;28;20492;-75
2023/08/19 12:10:01;;;;;;;8.38;2.47;;;34.90;49.20;;;;;;5046264;28;20041;-77
2023/08/19 12:12:28;;;;;;;9.45;2.83;;;34.80;51.20;;;;;;5044774;28;20025;-71
2023/08/19 12:14:54;;;;;;;4.00;2.25;;;34.90;47.50;;;;;;5043991;28;20786;-76
2023/08/19 12:17:21;;;;;;;9.55;3.10;;;35.00;50.20;;;;;;5045056;28;20030;-74
2023/08/19 12:19:47;;;;;;;8.52;3.10;;;35.10;48.10;;;;;;5045156;28;20041;-77
2023/08/19 12:22:13;;;;;;;7.22;2.78;;;35.00;47.00;;;;;;5045316;28;20044;-75
2023/08/19 12:24:39;;;;;;;12.07;3.03;;;34.80;44.10;;;;;;5045629;28;20039;-73
2023/08/19 12:27:05;;;;;;;10.68;3.10;;;35.00;48.20;;;;;;5044158;28;20116;-74
2023/08/19 12:29:31;;;;;;;8.35;2.58;;;34.90;47.70;;;;;;5044374;28;20139;-72
2023/08/19 12:31:56;;;;;;;10.10;2.90;;;35.00;49.60;;;;;;5044620;28;20551;-73
2023/08/19 12:34:22;;;;;;;20.15;3.03;;;35.40;45.10;;;;;;5042933;28;20472;-74
2023/08/19 12:36:47;;;;;;;7.72;2.78;;;35.40;45.70;;;;;;5043960;28;20020;-73
2023/08/19 12:39:13;;;;;;;8.95;2.78;;;35.50;45.10;;;;;;5043652;28;20703;-75
2023/08/19 12:41:39;;;;;;;;;;;35.30;45.20;;;;;;5043483;28;20123;-72
2023/08/19 12:44:05;;;;;;;3.85;2.40;;;35.30;47.80;;;;;;5040060;28;19924;-72
2023/08/19 12:46:32;;;;;;;8.35;2.88;;;35.30;45.00;;;;;;5042499;28;20124;-71
2023/08/19 12:48:58;;;;;;;9.85;3.03;;;35.20;49.20;;;;;;5042980;28;20480;-71
2023/08/19 12:51:24;;;;;;;13.65;3.70;;;35.40;47.30;;;;;;5043997;28;20064;-73